Time;durP1;ratioP1;P1;durP2;ratioP2;P2;SDS_P1;SDS_P2;PMS_P1;PMS_P2;Temp;Humidity;BMP_temperature;BMP_pressure;BME280_temperature;BME280_humidity;BME280_pressure;Samples;Min_cycle;Max_cycle;Signal;HPM_P1;HPM_P2
2023/12/14 00:01:14;;;;;;;28.25;12.45;;;5.70;99.90;;;;;;5035869;28;20174;-77
2023/12/14 00:04:07;;;;;;;15.52;11.77;;;5.70;99.90;;;;;;5035691;28;20274;-77
2023/12/14 00:06:33;;;;;;;16.83;12.55;;;5.80;99.90;;;;;;5035395;28;20685;-77
2023/12/14 00:08:58;;;;;;;18.35;11.63;;;5.70;99.90;;;;;;5035446;28;20190;-77
2023/12/14 00:11:24;;;;;;;15.57;11.82;;;5.70;99.90;;;;;;5036780;28;20199;-77
2023/12/14 00:13:50;;;;;;;11.27;10.07;;;5.60;99.90;;;;;;5036197;28;20634;-77
2023/12/14 00:16:15;;;;;;;10.70;9.57;;;5.60;99.90;;;;;;5036980;28;20195;-77
2023/12/14 00:18:41;;;;;;;12.70;10.18;;;5.60;99.90;;;;;;5037319;28;20171;-77
2023/12/14 00:21:07;;;;;;;11.50;10.30;;;5.60;99.90;;;;;;5036412;28;20178;-77
2023/12/14 00:23:33;;;;;;;12.80;11.32;;;5.60;99.90;;;;;;5037959;28;20183;-77
2023/12/14 00:25:59;;;;;;;13.88;11.50;;;5.60;99.90;;;;;;5036863;28;20202;-77
2023/12/14 00:28:25;;;;;;;13.82;12.13;;;5.70;99.90;;;;;;5036652;28;20270;-77
2023/12/14 00:30:50;;;;;;;14.50;13.00;;;5.70;99.90;;;;;;5036417;28;20206;-77
2023/12/14 00:33:16;;;;;;;18.08;13.85;;;5.60;99.90;;;;;;5036561;28;20654;-77
2023/12/14 00:35:42;;;;;;;26.40;13.65;;;5.40;99.90;;;;;;5036668;28;20202;-77
2023/12/14 00:38:07;;;;;;;14.38;12.88;;;5.40;99.90;;;;;;5037517;28;20182;-77
2023/12/14 00:40:33;;;;;;;14.45;12.95;;;5.40;99.90;;;;;;5037030;28;20175;-77
2023/12/14 00:42:58;;;;;;;17.05;13.45;;;5.30;99.90;;;;;;5037886;28;20229;-77
2023/12/14 00:45:24;;;;;;;13.63;12.07;;;5.30;99.90;;;;;;5035686;28;20205;-77
2023/12/14 00:47:49;;;;;;;15.43;13.05;;;5.30;99.90;;;;;;5037545;28;20201;-77
2023/12/14 00:50:15;;;;;;;15.45;13.35;;;5.40;99.90;;;;;;5036481;28;20178;-77
2023/12/14 00:52:40;;;;;;;27.13;14.57;;;5.40;99.90;;;;;;5036876;28;20198;-77
2023/12/14 00:55:06;;;;;;;30.27;13.95;;;5.40;99.90;;;;;;5036357;28;20653;-78
2023/12/14 00:57:32;;;;;;;24.58;13.95;;;5.30;99.90;;;;;;5035699;28;20584;-78
2023/12/14 00:59:57;;;;;;;17.17;13.10;;;5.40;99.90;;;;;;5036166;28;20214;-78
2023/12/14 01:02:23;;;;;;;150.25;15.77;;;5.30;99.90;;;;;;5036848;28;20186;-78
2023/12/14 01:04:48;;;;;;;56.80;13.25;;;5.40;99.90;;;;;;5036429;28;20182;-78
2023/12/14 01:07:14;;;;;;;39.15;14.68;;;5.30;99.90;;;;;;5035773;28;20206;-78
2023/12/14 01:09:39;;;;;;;142.82;15.52;;;5.30;99.90;;;;;;5035530;28;20202;-78
2023/12/14 01:12:05;;;;;;;57.53;14.38;;;5.20;99.90;;;;;;5034872;28;20700;-78
2023/12/14 01:14:30;;;;;;;220.20;15.73;;;5.20;99.90;;;;;;5035469;28;20183;-78
2023/12/14 01:16:56;;;;;;;151.18;15.50;;;5.20;99.90;;;;;;5034520;28;20244;-78
2023/12/14 01:19:22;;;;;;;308.43;16.80;;;5.10;99.90;;;;;;5034591;28;20175;-78
2023/12/14 01:21:47;;;;;;;62.13;14.18;;;5.10;99.90;;;;;;5034801;28;20183;-78
2023/12/14 01:24:16;;;;;;;29.30;11.30;;;4.90;99.90;;;;;;5035037;28;20179;-78
2023/12/14 01:26:41;;;;;;;30.60;9.53;;;4.90;99.90;;;;;;5035308;28;20253;-78
2023/12/14 01:29:07;;;;;;;56.05;9.60;;;5.00;99.90;;;;;;5034979;28;20182;-78
2023/12/14 01:31:34;;;;;;;39.78;10.25;;;5.00;99.90;;;;;;5035307;28;20206;-78
2023/12/14 01:34:00;;;;;;;125.93;11.37;;;5.10;99.90;;;;;;5036603;28;20175;-78
2023/12/14 01:36:26;;;;;;;47.63;10.48;;;5.00;99.90;;;;;;5035738;28;20190;-78
2023/12/14 01:38:52;;;;;;;71.75;9.90;;;5.00;99.90;;;;;;5035613;28;20213;-78
2023/12/14 01:41:18;;;;;;;22.20;8.95;;;5.00;99.90;;;;;;5034115;28;20214;-78
2023/12/14 01:43:44;;;;;;;31.05;7.85;;;5.10;99.90;;;;;;5033959;28;20179;-78
2023/12/14 01:46:10;;;;;;;10.37;7.33;;;5.00;99.90;;;;;;5035239;28;20199;-78
2023/12/14 01:48:35;;;;;;;9.13;6.83;;;5.00;99.90;;;;;;5035083;28;20201;-78
2023/12/14 01:51:01;;;;;;;6.90;6.30;;;5.10;99.90;;;;;;5033636;28;20206;-78
2023/12/14 01:53:26;;;;;;;6.57;5.97;;;5.00;99.90;;;;;;5033712;28;20221;-78
2023/12/14 01:55:52;;;;;;;7.43;6.67;;;5.00;99.90;;;;;;5033577;28;20179;-78
2023/12/14 01:58:18;;;;;;;11.53;7.17;;;5.00;99.90;;;;;;5033753;28;20258;-78
2023/12/14 02:43:42;;;;;;;9.47;8.20;;;4.90;99.90;;;;;;4897044;29;20195;-76
2023/12/14 02:46:08;;;;;;;9.20;8.40;;;4.90;99.90;;;;;;4918615;28;20221;-76
2023/12/14 02:48:34;;;;;;;11.88;9.07;;;4.90;99.90;;;;;;4969890;28;20185;-76
2023/12/14 02:51:00;;;;;;;17.20;8.43;;;5.00;99.90;;;;;;4973683;28;20235;-76
2023/12/14 02:53:26;;;;;;;15.85;8.45;;;5.00;99.90;;;;;;4973696;28;20205;-76
2023/12/14 02:55:51;;;;;;;35.25;9.45;;;5.00;99.90;;;;;;4973574;28;20235;-76
2023/12/14 02:58:18;;;;;;;50.90;9.07;;;5.00;99.90;;;;;;4973862;28;20192;-76
2023/12/14 03:00:43;;;;;;;18.50;9.33;;;5.10;99.90;;;;;;4973969;28;20185;-76
2023/12/14 03:03:09;;;;;;;8.50;7.70;;;5.00;99.90;;;;;;4973523;28;20185;-76
2023/12/14 03:05:34;;;;;;;9.47;8.43;;;4.70;99.90;;;;;;4974568;28;20176;-76
2023/12/14 03:08:00;;;;;;;14.10;8.40;;;4.90;99.90;;;;;;4973879;28;20188;-77
2023/12/14 03:10:25;;;;;;;9.98;8.10;;;4.90;99.90;;;;;;4974216;28;20177;-77
2023/12/14 03:12:51;;;;;;;9.35;8.35;;;5.00;99.90;;;;;;4974313;28;20208;-77
2023/12/14 03:15:18;;;;;;;9.97;8.87;;;4.90;99.90;;;;;;4974268;28;20711;-77
2023/12/14 03:18:09;;;;;;;10.37;8.83;;;4.80;99.90;;;;;;4974570;28;20200;-77
2023/12/14 03:20:34;;;;;;;9.17;8.37;;;4.60;99.90;;;;;;4975192;28;20181;-77
2023/12/14 03:23:00;;;;;;;10.27;9.37;;;4.60;99.90;;;;;;4974226;28;20232;-77
2023/12/14 03:25:25;;;;;;;9.77;8.93;;;4.60;99.90;;;;;;4974208;28;20173;-77
2023/12/14 03:27:51;;;;;;;9.73;8.83;;;4.60;99.90;;;;;;4974108;28;20185;-77
2023/12/14 03:30:16;;;;;;;10.07;9.17;;;4.60;99.90;;;;;;4974463;28;20191;-77
2023/12/14 03:32:42;;;;;;;9.27;8.47;;;4.60;99.90;;;;;;4974981;28;20205;-77
2023/12/14 03:35:08;;;;;;;9.10;8.30;;;4.70;99.90;;;;;;4974275;28;20219;-77
2023/12/14 03:37:34;;;;;;;10.47;9.30;;;4.70;99.90;;;;;;4974301;28;20206;-77
2023/12/14 03:40:00;;;;;;;9.47;8.67;;;4.70;99.90;;;;;;4975673;28;20201;-77
2023/12/14 03:42:25;;;;;;;8.77;8.07;;;4.70;99.90;;;;;;4975304;28;20199;-77
2023/12/14 03:44:51;;;;;;;8.33;7.63;;;4.70;99.90;;;;;;4974735;28;20188;-77
2023/12/14 03:47:17;;;;;;;9.03;8.23;;;4.80;99.90;;;;;;4974368;28;20213;-77
2023/12/14 03:49:43;;;;;;;9.33;8.53;;;4.80;99.90;;;;;;4974233;28;20181;-77
2023/12/14 03:52:09;;;;;;;8.85;8.05;;;4.90;99.90;;;;;;4974611;28;20611;-77
2023/12/14 03:54:35;;;;;;;8.85;8.07;;;4.90;99.90;;;;;;4973979;28;20177;-77
2023/12/14 03:57:00;;;;;;;9.20;8.30;;;5.00;99.90;;;;;;4974662;28;20216;-77
2023/12/14 03:59:26;;;;;;;9.07;8.27;;;5.00;99.90;;;;;;4974019;28;20176;-77
2023/12/14 04:01:51;;;;;;;9.00;8.20;;;5.00;99.90;;;;;;4973700;28;20184;-77
2023/12/14 04:04:17;;;;;;;11.70;10.52;;;5.00;99.90;;;;;;4973610;28;20185;-77
2023/12/14 04:06:45;;;;;;;10.40;9.35;;;5.10;99.90;;;;;;4973602;28;20201;-77
2023/12/14 04:09:11;;;;;;;10.02;9.13;;;5.00;99.90;;;;;;4974393;28;20184;-77
2023/12/14 04:11:37;;;;;;;9.90;9.00;;;5.10;99.90;;;;;;4973663;28;20204;-77
2023/12/14 04:14:02;;;;;;;9.88;8.98;;;5.00;99.90;;;;;;4973339;28;20185;-77
2023/12/14 04:16:28;;;;;;;9.10;8.30;;;4.90;99.90;;;;;;4973429;28;20196;-77
2023/12/14 04:18:53;;;;;;;9.35;8.55;;;5.00;99.90;;;;;;4973396;28;20181;-77
2023/12/14 04:21:19;;;;;;;9.27;8.47;;;5.00;99.90;;;;;;4976663;28;20319;-77
2023/12/14 04:23:45;;;;;;;8.38;7.68;;;4.90;99.90;;;;;;4976480;28;20612;-77
2023/12/14 04:26:11;;;;;;;9.05;8.15;;;4.90;99.90;;;;;;4977392;28;20235;-76
2023/12/14 04:28:36;;;;;;;10.00;8.88;;;5.00;99.90;;;;;;4976289;28;20217;-76
2023/12/14 04:31:02;;;;;;;10.63;9.67;;;4.90;99.90;;;;;;4976674;28;20207;-75
2023/12/14 04:33:28;;;;;;;9.70;8.80;;;4.80;99.90;;;;;;4977301;28;20184;-75
2023/12/14 04:35:53;;;;;;;12.27;11.07;;;4.80;99.90;;;;;;4975991;28;20276;-76
2023/12/14 04:38:19;;;;;;;10.80;9.80;;;4.90;99.90;;;;;;4976371;28;20181;-76
2023/12/14 04:40:44;;;;;;;9.93;9.03;;;4.90;99.90;;;;;;4976093;28;20180;-76
2023/12/14 04:43:10;;;;;;;9.10;8.30;;;4.90;99.90;;;;;;4976053;28;20181;-76
2023/12/14 04:45:35;;;;;;;9.60;8.73;;;4.90;99.90;;;;;;4976175;28;20208;-75
2023/12/14 04:48:01;;;;;;;8.85;8.05;;;4.90;99.90;;;;;;4977010;28;20271;-75
2023/12/14 04:50:26;;;;;;;9.10;8.23;;;5.00;99.90;;;;;;4976506;28;20187;-75
2023/12/14 04:52:52;;;;;;;9.45;8.55;;;5.00;99.90;;;;;;4975726;28;20214;-75
2023/12/14 04:55:17;;;;;;;10.95;9.48;;;5.00;99.90;;;;;;4975890;28;20554;-75
2023/12/14 04:57:43;;;;;;;12.57;11.30;;;4.90;99.90;;;;;;4975853;28;20197;-76
2023/12/14 05:00:09;;;;;;;12.17;10.80;;;4.70;99.90;;;;;;4976973;28;20216;-76
2023/12/14 05:02:35;;;;;;;10.50;9.40;;;4.70;99.90;;;;;;4976760;28;20644;-76
2023/12/14 05:05:01;;;;;;;12.47;10.70;;;4.70;99.90;;;;;;4977201;28;20189;-76
2023/12/14 05:07:26;;;;;;;11.77;10.57;;;4.70;99.90;;;;;;4977283;28;20256;-76
2023/12/14 05:09:52;;;;;;;12.57;11.27;;;4.80;99.90;;;;;;4976284;28;20208;-76
2023/12/14 05:12:17;;;;;;;12.70;10.93;;;4.80;99.90;;;;;;4975568;28;20725;-76
2023/12/14 05:14:43;;;;;;;16.30;13.02;;;4.80;99.90;;;;;;4975696;28;20185;-76
2023/12/14 05:17:08;;;;;;;12.07;10.80;;;4.80;99.90;;;;;;4975682;28;20205;-76
2023/12/14 05:19:34;;;;;;;15.27;13.68;;;4.80;99.90;;;;;;4975634;28;20554;-76
2023/12/14 05:21:59;;;;;;;16.77;14.70;;;4.80;99.90;;;;;;4975600;28;20195;-76
2023/12/14 05:24:25;;;;;;;15.63;13.82;;;4.80;99.90;;;;;;4975594;28;20176;-76
2023/12/14 05:26:51;;;;;;;17.70;15.03;;;4.90;99.90;;;;;;4976706;28;20220;-77
2023/12/14 05:29:17;;;;;;;30.63;21.85;;;4.90;99.90;;;;;;4975734;28;20184;-77
2023/12/14 05:31:45;;;;;;;32.77;22.60;;;5.00;99.90;;;;;;4975517;28;20209;-77
2023/12/14 05:34:11;;;;;;;59.55;32.10;;;5.10;99.90;;;;;;4975714;28;20196;-76
2023/12/14 05:36:36;;;;;;;36.03;21.63;;;5.10;99.90;;;;;;4976395;28;20196;-76
2023/12/14 05:39:03;;;;;;;23.17;16.15;;;5.10;99.90;;;;;;4975804;28;20193;-76
2023/12/14 05:41:29;;;;;;;18.43;14.43;;;5.00;99.90;;;;;;4976302;28;20208;-76
2023/12/14 05:43:55;;;;;;;14.47;12.97;;;5.10;99.90;;;;;;4977061;28;20189;-76
2023/12/14 05:46:24;;;;;;;15.82;13.68;;;5.20;99.90;;;;;;4977449;28;20208;-76
2023/12/14 05:48:50;;;;;;;11.93;10.73;;;5.10;99.90;;;;;;4978742;28;20216;-77
2023/12/14 05:51:32;;;;;;;18.15;16.25;;;5.10;99.90;;;;;;4979013;28;20264;-77
2023/12/14 05:53:58;;;;;;;18.15;13.68;;;5.10;99.90;;;;;;4980405;28;20185;-76
2023/12/14 05:56:27;;;;;;;15.10;13.48;;;5.20;99.90;;;;;;4980092;28;20248;-76
2023/12/14 05:58:53;;;;;;;16.23;13.57;;;5.10;99.90;;;;;;4978331;28;20185;-76
2023/12/14 06:01:19;;;;;;;12.88;11.15;;;5.10;99.90;;;;;;4978940;28;20191;-76
2023/12/14 06:03:47;;;;;;;13.43;10.93;;;5.20;99.90;;;;;;4978371;28;20184;-76
2023/12/14 06:06:20;;;;;;;14.05;11.95;;;5.20;99.90;;;;;;4975628;28;20243;-77
2023/12/14 06:08:45;;;;;;;16.23;14.57;;;5.20;99.90;;;;;;4975780;28;20177;-77
2023/12/14 06:11:11;;;;;;;13.50;12.10;;;5.20;99.90;;;;;;4974984;28;20231;-76
2023/12/14 06:13:37;;;;;;;14.27;11.80;;;5.10;99.90;;;;;;4976802;28;20184;-77
2023/12/14 06:16:03;;;;;;;12.83;11.53;;;5.20;99.90;;;;;;4975114;28;20201;-76
2023/12/14 06:18:29;;;;;;;11.37;10.07;;;5.10;99.90;;;;;;4975270;28;20184;-77
2023/12/14 06:20:55;;;;;;;9.80;8.80;;;5.20;99.90;;;;;;4975758;28;20177;-76
2023/12/14 06:23:21;;;;;;;9.20;8.40;;;5.20;99.90;;;;;;4975280;28;20534;-77
2023/12/14 06:25:52;;;;;;;11.48;9.18;;;5.20;99.90;;;;;;4976145;28;20208;-77
2023/12/14 06:28:17;;;;;;;10.15;9.25;;;5.20;99.90;;;;;;4975035;28;20176;-77
2023/12/14 06:30:43;;;;;;;10.52;9.63;;;5.20;99.90;;;;;;4975500;28;20180;-75
2023/12/14 06:33:08;;;;;;;10.15;9.15;;;5.20;99.90;;;;;;4974292;28;20173;-76
2023/12/14 06:35:34;;;;;;;9.38;8.48;;;5.20;99.90;;;;;;4974500;28;20203;-75
2023/12/14 06:38:00;;;;;;;8.60;7.80;;;5.30;99.90;;;;;;4973954;28;20217;-75
2023/12/14 06:40:25;;;;;;;8.45;7.65;;;5.40;99.90;;;;;;4975517;28;20232;-75
2023/12/14 06:42:51;;;;;;;8.88;8.07;;;5.40;99.90;;;;;;4974123;28;20182;-76
2023/12/14 06:45:16;;;;;;;9.15;8.25;;;5.20;99.90;;;;;;4975454;28;20189;-75
2023/12/14 06:48:04;;;;;;;9.30;8.40;;;5.20;99.90;;;;;;4973752;28;20663;-75
2023/12/14 06:50:30;;;;;;;9.70;8.47;;;5.20;99.90;;;;;;4974846;28;20183;-75
2023/12/14 06:52:55;;;;;;;9.43;8.43;;;5.10;99.90;;;;;;4974811;28;20213;-75
2023/12/14 06:55:21;;;;;;;7.97;7.28;;;5.10;99.90;;;;;;4974837;28;20177;-75
2023/12/14 06:57:46;;;;;;;8.18;7.38;;;5.20;99.90;;;;;;4973552;28;20620;-75
2023/12/14 07:00:13;;;;;;;7.03;6.38;;;5.10;99.90;;;;;;4973829;28;20240;-76
2023/12/14 07:02:39;;;;;;;7.82;7.13;;;5.10;99.90;;;;;;4974263;28;20236;-75
2023/12/14 07:05:06;;;;;;;8.02;7.22;;;5.20;99.90;;;;;;4974209;28;20215;-76
2023/12/14 07:07:31;;;;;;;7.47;6.72;;;5.20;99.90;;;;;;4974852;28;20287;-76
2023/12/14 07:09:57;;;;;;;7.38;6.68;;;5.20;99.90;;;;;;4974471;28;20185;-76
2023/12/14 07:12:22;;;;;;;7.80;7.00;;;5.20;99.90;;;;;;4974220;28;20208;-76
2023/12/14 07:14:48;;;;;;;8.10;7.30;;;5.20;99.90;;;;;;4974509;28;20220;-77
2023/12/14 07:17:13;;;;;;;10.55;7.78;;;5.20;99.90;;;;;;4974431;28;20212;-77
2023/12/14 07:19:39;;;;;;;12.97;10.67;;;5.20;99.90;;;;;;4974302;28;20180;-77
2023/12/14 07:22:04;;;;;;;19.05;13.02;;;5.20;99.90;;;;;;4975087;28;20196;-77
2023/12/14 07:24:30;;;;;;;14.90;10.65;;;5.20;99.90;;;;;;4974688;28;20191;-77
2023/12/14 07:26:56;;;;;;;10.88;9.77;;;5.30;99.90;;;;;;4974498;28;20212;-76
2023/12/14 07:29:21;;;;;;;12.25;10.95;;;5.30;99.90;;;;;;4974692;28;20185;-76
2023/12/14 07:31:47;;;;;;;10.60;9.57;;;5.40;99.90;;;;;;4975457;28;20216;-76
2023/12/14 07:34:12;;;;;;;9.02;8.13;;;5.40;99.90;;;;;;4973926;28;20299;-76
2023/12/14 07:36:38;;;;;;;11.48;9.38;;;5.50;99.90;;;;;;4975234;28;20200;-76
2023/12/14 07:39:05;;;;;;;15.07;13.50;;;5.20;99.90;;;;;;4973926;28;20184;-76
2023/12/14 07:41:32;;;;;;;11.02;10.02;;;5.20;99.90;;;;;;4974818;28;20179;-76
2023/12/14 07:43:58;;;;;;;10.70;9.65;;;5.20;99.90;;;;;;4973803;28;20188;-76
2023/12/14 07:46:23;;;;;;;13.52;12.15;;;5.30;99.90;;;;;;4973691;28;20208;-76
2023/12/14 07:48:49;;;;;;;14.35;12.95;;;5.30;99.90;;;;;;4974853;28;20181;-76
2023/12/14 07:51:15;;;;;;;15.27;13.68;;;5.20;99.90;;;;;;4974053;28;20702;-76
2023/12/14 07:53:42;;;;;;;23.38;19.35;;;5.30;99.90;;;;;;4974134;28;20196;-76
2023/12/14 07:56:08;;;;;;;22.20;18.27;;;5.30;99.90;;;;;;4977412;28;20200;-76
2023/12/14 07:58:33;;;;;;;26.77;20.25;;;5.40;99.90;;;;;;4977946;28;20647;-76
2023/12/14 08:00:59;;;;;;;26.15;19.58;;;5.50;99.90;;;;;;4978726;28;20181;-76
2023/12/14 08:03:24;;;;;;;22.30;16.48;;;5.50;99.90;;;;;;4977679;28;20184;-76
2023/12/14 08:05:51;;;;;;;18.10;13.38;;;5.30;99.90;;;;;;4977381;28;20193;-76
2023/12/14 08:08:16;;;;;;;13.05;11.70;;;5.40;99.90;;;;;;4977517;28;20205;-76
2023/12/14 08:10:42;;;;;;;13.73;12.38;;;5.40;99.90;;;;;;4978914;28;20655;-76
2023/12/14 08:13:07;;;;;;;14.10;12.60;;;5.50;99.90;;;;;;4977652;28;20220;-76
2023/12/14 08:15:33;;;;;;;12.15;10.95;;;5.50;99.90;;;;;;4978686;28;20191;-76
2023/12/14 08:17:58;;;;;;;11.05;9.95;;;5.60;99.90;;;;;;4978753;28;20177;-76
2023/12/14 08:20:24;;;;;;;10.00;9.10;;;5.70;99.90;;;;;;4977236;28;20208;-76
2023/12/14 08:22:49;;;;;;;9.82;8.88;;;5.70;99.90;;;;;;4977179;28;20272;-76
2023/12/14 08:25:16;;;;;;;10.52;9.15;;;5.60;99.90;;;;;;4977409;28;20176;-76
2023/12/14 08:27:42;;;;;;;10.35;8.85;;;5.60;99.90;;;;;;4977789;28;20654;-76
2023/12/14 08:30:08;;;;;;;8.90;8.10;;;5.60;99.90;;;;;;4977827;28;20277;-76
2023/12/14 08:32:34;;;;;;;9.35;8.45;;;5.60;99.90;;;;;;4978283;28;20215;-76
2023/12/14 08:34:59;;;;;;;10.15;7.43;;;5.70;99.90;;;;;;4977748;28;20197;-76
2023/12/14 08:37:25;;;;;;;10.65;8.07;;;5.80;99.90;;;;;;4978646;28;20213;-76
2023/12/14 08:39:51;;;;;;;10.63;7.10;;;5.80;99.90;;;;;;4978108;28;20337;-76
2023/12/14 08:42:16;;;;;;;8.27;7.43;;;5.90;99.90;;;;;;4977155;28;20181;-76
2023/12/14 08:44:42;;;;;;;8.68;7.88;;;6.00;99.90;;;;;;4977276;28;20173;-76
2023/12/14 08:47:08;;;;;;;9.50;7.55;;;5.90;99.90;;;;;;4976855;28;20226;-76
2023/12/14 08:49:34;;;;;;;9.15;8.27;;;6.00;99.90;;;;;;4977983;28;20249;-76
2023/12/14 08:52:00;;;;;;;8.98;8.07;;;5.90;99.90;;;;;;4977069;28;20671;-76
2023/12/14 08:54:26;;;;;;;8.50;7.63;;;5.90;99.90;;;;;;4977933;28;20173;-76
2023/12/14 08:56:52;;;;;;;8.15;7.35;;;5.80;99.90;;;;;;4976908;28;20201;-76
2023/12/14 08:59:19;;;;;;;8.90;8.00;;;5.80;99.90;;;;;;4976824;28;20185;-76
2023/12/14 09:01:45;;;;;;;11.35;8.23;;;5.80;99.90;;;;;;4976844;28;20184;-76
2023/12/14 09:04:11;;;;;;;10.32;8.65;;;5.80;99.90;;;;;;4976589;28;20177;-76
2023/12/14 09:06:36;;;;;;;11.45;10.25;;;5.70;99.90;;;;;;4975720;28;20197;-76
2023/12/14 09:09:03;;;;;;;9.80;8.80;;;5.70;99.90;;;;;;4976685;28;20249;-76
2023/12/14 09:11:29;;;;;;;9.60;8.60;;;5.60;99.90;;;;;;4976556;28;20208;-76
2023/12/14 09:13:55;;;;;;;9.82;8.48;;;5.60;99.90;;;;;;4976738;28;20173;-76
2023/12/14 09:16:21;;;;;;;9.27;8.35;;;5.60;99.90;;;;;;4976652;28;20204;-76
2023/12/14 09:18:47;;;;;;;11.68;8.40;;;5.70;99.90;;;;;;4976483;28;20177;-76
2023/12/14 09:21:12;;;;;;;10.13;8.48;;;5.70;99.90;;;;;;4977190;28;20177;-76
2023/12/14 09:23:40;;;;;;;10.13;9.10;;;5.70;99.90;;;;;;4976395;28;20184;-76
2023/12/14 09:26:06;;;;;;;9.73;8.63;;;5.80;99.90;;;;;;4976031;28;20643;-76
2023/12/14 09:28:31;;;;;;;10.00;8.07;;;5.90;99.90;;;;;;4976168;28;20185;-76
2023/12/14 09:30:57;;;;;;;8.50;7.72;;;6.00;99.90;;;;;;4977367;28;20189;-76
2023/12/14 09:33:22;;;;;;;10.25;9.27;;;6.00;99.90;;;;;;4976030;28;20177;-76
2023/12/14 09:35:48;;;;;;;10.13;8.70;;;5.60;99.90;;;;;;4975859;28;20209;-76
2023/12/14 09:38:16;;;;;;;10.47;8.70;;;5.60;99.90;;;;;;4977508;28;20184;-76
2023/12/14 09:40:43;;;;;;;9.77;8.87;;;5.50;99.90;;;;;;4975849;28;20295;-76
2023/12/14 09:43:09;;;;;;;10.27;9.27;;;5.50;99.90;;;;;;4976198;28;20189;-76
2023/12/14 09:45:37;;;;;;;10.40;9.05;;;5.70;99.90;;;;;;4975769;28;20275;-76
2023/12/14 09:48:04;;;;;;;9.27;8.27;;;5.80;99.90;;;;;;4975810;28;20180;-76
2023/12/14 09:50:31;;;;;;;9.18;8.27;;;5.90;99.90;;;;;;4975862;28;20185;-76
2023/12/14 09:52:57;;;;;;;10.98;9.88;;;6.00;99.90;;;;;;4975461;28;20212;-76
2023/12/14 09:55:22;;;;;;;11.52;8.52;;;5.90;99.90;;;;;;4975678;28;20312;-76
2023/12/14 09:57:48;;;;;;;10.80;9.13;;;6.00;99.90;;;;;;4976912;28;20187;-76
2023/12/14 10:00:33;;;;;;;9.85;8.85;;;6.10;99.90;;;;;;4975549;28;20220;-76
2023/12/14 10:03:18;;;;;;;10.95;9.95;;;6.20;99.90;;;;;;4977357;28;20247;-76
2023/12/14 10:05:43;;;;;;;13.80;11.52;;;6.30;99.90;;;;;;4975904;28;20208;-76
2023/12/14 10:08:09;;;;;;;12.70;11.43;;;6.30;99.90;;;;;;4975376;28;20181;-76
2023/12/14 10:10:34;;;;;;;11.70;10.50;;;6.10;99.90;;;;;;4975575;28;20176;-76
2023/12/14 10:13:00;;;;;;;12.63;11.05;;;6.30;99.90;;;;;;4974820;28;20220;-76
2023/12/14 10:15:26;;;;;;;11.20;9.95;;;6.50;99.90;;;;;;4974934;28;20723;-76
2023/12/14 10:17:54;;;;;;;10.27;9.25;;;6.70;99.90;;;;;;4974870;28;20617;-76
2023/12/14 10:20:23;;;;;;;10.32;9.25;;;6.80;99.90;;;;;;4976376;28;20173;-76
2023/12/14 10:22:49;;;;;;;15.13;9.40;;;6.90;99.90;;;;;;4976269;28;20184;-76
2023/12/14 10:25:15;;;;;;;12.80;10.82;;;6.90;99.90;;;;;;4974934;28;20208;-76
2023/12/14 10:27:40;;;;;;;11.93;10.20;;;7.00;99.90;;;;;;4974741;28;20679;-76
2023/12/14 10:30:08;;;;;;;12.30;9.85;;;6.80;99.90;;;;;;4975399;28;20176;-76
2023/12/14 10:32:34;;;;;;;11.30;10.20;;;6.90;99.90;;;;;;4975242;28;20207;-77
2023/12/14 10:35:00;;;;;;;11.65;10.45;;;7.10;99.90;;;;;;4975297;28;20197;-77
2023/12/14 10:37:26;;;;;;;11.30;9.55;;;7.10;99.90;;;;;;4975651;28;20199;-77
2023/12/14 10:39:53;;;;;;;9.75;8.82;;;7.20;99.90;;;;;;4974632;28;20181;-77
2023/12/14 10:42:22;;;;;;;11.23;9.85;;;7.20;99.90;;;;;;4974517;28;20194;-77
2023/12/14 10:44:53;;;;;;;11.05;9.80;;;7.20;99.90;;;;;;4975443;28;20186;-77
2023/12/14 10:47:19;;;;;;;12.20;9.73;;;7.10;99.90;;;;;;4974149;28;20208;-77
2023/12/14 10:49:50;;;;;;;11.35;10.15;;;6.90;99.90;;;;;;4974614;28;20287;-77
2023/12/14 10:52:17;;;;;;;11.65;9.82;;;6.80;99.90;;;;;;4974253;28;20228;-77
2023/12/14 10:54:44;;;;;;;11.38;9.77;;;6.80;99.90;;;;;;4974300;28;20216;-77
2023/12/14 10:57:09;;;;;;;11.82;10.32;;;6.70;99.90;;;;;;4974612;28;20269;-77
2023/12/14 10:59:35;;;;;;;12.85;10.40;;;6.70;99.90;;;;;;4975185;28;20263;-77
2023/12/14 11:02:09;;;;;;;11.73;10.45;;;6.70;99.90;;;;;;4974968;28;20181;-77
2023/12/14 11:04:56;;;;;;;12.30;10.18;;;6.70;99.90;;;;;;4975297;28;20255;-77
2023/12/14 11:07:45;;;;;;;12.63;10.73;;;6.80;99.90;;;;;;4964679;28;20205;-77
2023/12/14 11:10:11;;;;;;;12.15;9.85;;;6.70;99.90;;;;;;4974832;28;20543;-77
2023/12/14 11:12:37;;;;;;;11.60;10.40;;;6.80;99.90;;;;;;4974222;28;20208;-77
2023/12/14 11:15:07;;;;;;;11.32;10.23;;;6.80;99.90;;;;;;4974595;28;20181;-77
2023/12/14 11:17:34;;;;;;;13.75;10.02;;;6.80;99.90;;;;;;4973968;28;20204;-77
2023/12/14 11:20:29;;;;;;;11.10;9.90;;;6.80;99.90;;;;;;4974532;28;20245;-77
2023/12/14 11:22:55;;;;;;;10.55;9.45;;;6.80;99.90;;;;;;4974266;28;20186;-77
2023/12/14 11:25:24;;;;;;;10.60;9.50;;;6.80;99.90;;;;;;4973966;28;20177;-77
2023/12/14 11:27:49;;;;;;;13.18;11.55;;;6.70;99.90;;;;;;4974096;28;20236;-77
2023/12/14 11:30:16;;;;;;;14.93;11.43;;;6.70;99.90;;;;;;4976568;28;20181;-77
2023/12/14 11:32:42;;;;;;;19.13;13.77;;;6.70;99.90;;;;;;4977902;28;20256;-77
2023/12/14 11:35:10;;;;;;;14.82;11.73;;;6.70;99.90;;;;;;4977663;28;20567;-77
2023/12/14 11:37:36;;;;;;;12.90;10.55;;;6.70;99.90;;;;;;4977777;28;20709;-77
2023/12/14 11:40:05;;;;;;;11.30;9.85;;;6.70;99.90;;;;;;4978533;28;20263;-77
2023/12/14 11:42:31;;;;;;;11.55;9.60;;;6.60;99.90;;;;;;4978061;28;20181;-77
2023/12/14 11:44:57;;;;;;;10.00;9.00;;;6.60;99.90;;;;;;4977773;28;20207;-77
2023/12/14 11:47:22;;;;;;;11.63;9.18;;;6.60;99.90;;;;;;4977499;28;20227;-77
2023/12/14 11:49:48;;;;;;;9.55;8.60;;;6.60;99.90;;;;;;4978695;28;20206;-77
2023/12/14 11:52:14;;;;;;;9.95;8.70;;;6.60;99.90;;;;;;4978878;28;20193;-77
2023/12/14 11:54:39;;;;;;;11.00;8.30;;;6.60;99.90;;;;;;4977809;28;20173;-77
2023/12/14 11:57:08;;;;;;;7.75;7.05;;;6.70;99.90;;;;;;4978534;28;20283;-77
2023/12/14 11:59:34;;;;;;;6.68;6.07;;;6.80;99.90;;;;;;4978694;28;20643;-77
2023/12/14 12:02:01;;;;;;;6.20;5.60;;;6.70;99.90;;;;;;4978658;28;20213;-77
2023/12/14 12:04:27;;;;;;;6.25;5.65;;;6.60;99.90;;;;;;4977640;28;20181;-77
2023/12/14 12:07:01;;;;;;;6.60;6.03;;;6.70;99.90;;;;;;4977599;28;20223;-77
2023/12/14 12:09:42;;;;;;;5.93;5.32;;;6.70;99.90;;;;;;4977352;28;20189;-77
2023/12/14 12:12:12;;;;;;;7.10;4.38;;;6.80;99.90;;;;;;4977288;28;20355;-77
2023/12/14 12:14:39;;;;;;;4.95;4.00;;;6.90;99.90;;;;;;4977527;28;20177;-77
2023/12/14 12:17:05;;;;;;;4.40;4.07;;;6.80;99.90;;;;;;4977397;28;20197;-77
2023/12/14 12:19:35;;;;;;;4.60;4.20;;;6.80;99.90;;;;;;4978418;28;20181;-77
2023/12/14 12:22:02;;;;;;;3.63;3.33;;;6.80;99.90;;;;;;4977194;28;20180;-77
2023/12/14 12:24:27;;;;;;;3.38;3.17;;;6.90;99.90;;;;;;4976825;28;20225;-77
2023/12/14 12:26:54;;;;;;;3.28;3.08;;;7.00;99.90;;;;;;4976919;28;20754;-77
2023/12/14 12:29:19;;;;;;;3.08;2.83;;;7.10;99.90;;;;;;4976858;28;20191;-77
2023/12/14 12:31:45;;;;;;;3.00;2.80;;;7.10;99.90;;;;;;4976930;28;20205;-77
2023/12/14 12:34:11;;;;;;;3.00;2.80;;;7.20;99.90;;;;;;4978066;28;20256;-77
2023/12/14 12:36:37;;;;;;;3.40;3.17;;;7.10;99.90;;;;;;4977266;28;20208;-77
2023/12/14 12:39:03;;;;;;;3.13;2.85;;;7.20;99.90;;;;;;4977003;28;20180;-77
2023/12/14 12:41:28;;;;;;;3.25;2.45;;;7.40;99.90;;;;;;4975470;28;20185;-77
2023/12/14 12:44:16;;;;;;;2.72;2.47;;;7.30;99.90;;;;;;4976611;28;20193;-76
2023/12/14 12:46:42;;;;;;;2.35;2.15;;;7.40;99.90;;;;;;4976743;28;20201;-77
2023/12/14 12:49:07;;;;;;;2.90;2.15;;;7.60;99.90;;;;;;4977394;28;20176;-77
2023/12/14 12:51:33;;;;;;;4.22;1.90;;;7.60;99.90;;;;;;4977658;28;20256;-76
2023/12/14 12:53:59;;;;;;;2.00;1.90;;;7.50;99.90;;;;;;4977372;28;20177;-76
2023/12/14 12:56:28;;;;;;;2.08;1.98;;;7.50;99.90;;;;;;4976395;28;20203;-76
2023/12/14 12:58:54;;;;;;;1.80;1.70;;;7.60;99.90;;;;;;4976600;28;20175;-76
2023/12/14 13:01:23;;;;;;;1.90;1.80;;;7.50;99.90;;;;;;4977676;28;20256;-76
2023/12/14 13:03:54;;;;;;;3.15;2.40;;;7.40;99.90;;;;;;4976745;28;20192;-76
2023/12/14 13:06:21;;;;;;;2.13;1.90;;;7.40;99.90;;;;;;4976264;28;20209;-76
2023/12/14 13:08:46;;;;;;;2.53;2.33;;;7.30;99.90;;;;;;4976944;28;20180;-76
2023/12/14 13:11:12;;;;;;;5.30;3.40;;;7.20;99.90;;;;;;4976920;28;20181;-76
2023/12/14 13:13:37;;;;;;;2.83;2.45;;;7.20;99.90;;;;;;4976299;28;20239;-76
2023/12/14 13:16:03;;;;;;;2.13;2.03;;;7.10;99.90;;;;;;4976088;28;20197;-76
2023/12/14 13:18:29;;;;;;;2.13;2.00;;;7.10;99.90;;;;;;4976465;28;20184;-76
2023/12/14 13:20:54;;;;;;;2.72;1.85;;;7.10;99.90;;;;;;4976288;28;20188;-76
2023/12/14 13:23:20;;;;;;;2.13;2.03;;;7.00;99.90;;;;;;4976014;28;20177;-76
2023/12/14 13:25:45;;;;;;;3.20;2.15;;;7.00;99.90;;;;;;4976256;28;20197;-76
2023/12/14 13:28:12;;;;;;;2.40;2.30;;;6.90;99.90;;;;;;4975904;28;20267;-76